小松飛行場の過去48時間の天気

小松飛行場 (Kanazawa/Komatsu)

現在時刻: 4/26 20:20 JST (4/26 11:20 UTC) 以下の時間は現地時間です。

過去48時間のMETAR気象情報
時間 風向 風速(m/s) 視程 気温(℃) 湿度(%) 気圧(hPa) 天気現象
26 20:00 2 10km以上 13 72 1014
26 19:00 2 10km以上 13 67 1013
26 18:00 北北西 3 10km以上 13 67 1013
26 17:00 北北西 3 10km以上 14 59 1013
26 16:00 北西 4 10km以上 14 63 1014
26 15:00 北西 4 10km以上 14 59 1014
26 14:00 北西 4 10km以上 15 59 1014
26 13:00 北西 4 10km以上 15 55 1014
26 12:00 北西 5 10km以上 15 55 1014
26 11:00 5 10km以上 15 59 1015
26 10:00 北西 5 10km以上 14 59 1015
26 09:00 北北西 4 10km以上 14 63 1014
26 08:00 東北東 3 10km以上 13 72 1014
26 07:00 不定 1 10km以上 11 87 1014
26 06:00 1 10km以上 10 94 1013
26 05:00 南東 2 10km以上 11 87 1013
26 04:00 2 10km以上 11 82 1012
26 03:00 北北西 3 10km以上 11 87 1012 弱い雨
26 02:00 北西 4 10km以上 11 87 1011
26 01:00 北西 3 10km以上 11 87 1011 弱い霧雨
26 00:00 北西 4 10km以上 11 87 1011 弱い霧雨
25 23:00 北北西 4 7,000m 11 94 1011 弱い霧雨
25 22:00 北北西 4 5,000m 11 94 1011 弱い霧雨 もや
25 21:00 北西 4 10km以上 12 88 1011 弱い雨
25 20:00 西北西 4 10km以上 12 88 1010 弱い雨
25 19:00 西北西 4 4,000m 12 94 1009 弱い雨 弱い霧雨 もや
25 18:00 西北西 4 10km以上 12 94 1008 弱い雨
25 17:00 西北西 4 2,000m 12 100 1008 弱い雨 弱い霧雨 もや
25 16:00 西北西 5 2,000m 12 100 1007 弱い雨 弱い霧雨 もや
25 15:00 西北西 5 2,500m 13 94 1007 弱いしゅう雨 もや
25 14:00 西北西 5 2,000m 13 100 1006 弱いしゅう雨 もや
25 13:00 西北西 5 2,000m 13 100 1006 弱いしゅう雨 もや
25 12:00 西北西 5 2,000m 13 100 1005 弱いしゅう雨 もや
25 11:00 西北西 5 3,000m 14 94 1005 弱いしゅう雨 もや
25 10:00 南西 7 3,500m 14 100 1004 弱いしゅう雨 もや
25 09:00 西南西 7 7,000m 14 94 1003 弱いしゅう雨
25 08:00 西南西 6 5,000m 14 94 1003 弱いしゅう雨 もや
25 07:00 西南西 5 7,000m 15 94 1002 弱いしゅう雨
25 06:00 西南西 7 3,000m 15 100 1001 弱いしゅう雨 もや
25 05:00 西南西 2 5,000m 17 94 1001 弱いしゅう雨 もや
25 04:00 不定 1 3,000m 16 100 1001 しゅう雨 もや
25 03:00 不定 1 8,000m 16 94 1001 弱いしゅう雨
25 02:00 南東 2 4,000m 16 94 1001 弱いしゅう雨 もや
25 01:00 静穏 0 3,000m 15 100 1002 しゅう雨 もや
25 00:00 2 8,000m 16 94 1002 弱い雨
24 23:00 北東 2 8,000m 16 94 1003 弱い雨
24 22:00 北東 2 8,000m 16 94 1004 弱い雨
24 21:00 2 5,000m 16 94 1004 弱い雨 もや
RJNK 261100Z 01004KT 330V030 9999 FEW020 BKN/// 13/08 Q1014
RJNK 261000Z 36003KT 320V120 9999 FEW010 BKN/// 13/07 Q1013
RJNK 260900Z 34005KT 310V010 9999 FEW010 BKN230 13/07 Q1013
RJNK 260800Z 34005KT 310V030 9999 FEW010 SCT030 BKN230 14/06 Q1013
RJNK 260700Z 32008KT 290V350 9999 FEW010 SCT030 BKN230 14/07 Q1014
RJNK 260600Z 31008KT 290V360 9999 FEW010 SCT030 BKN230 14/06 Q1014
RJNK 260500Z 32008KT 290V360 9999 FEW015 SCT030 BKN230 15/07 Q1014
RJNK 260400Z 31008KT 270V340 9999 FEW015 SCT030 15/06 Q1014
RJNK 260300Z 32009KT 280V350 9999 FEW015 SCT040 15/06 Q1014
RJNK 260200Z 35009KT 9999 FEW015 15/07 Q1015
RJNK 260100Z 32009KT 9999 FEW015 14/06 Q1015
RJNK 260000Z 34008KT 9999 FEW015 14/07 Q1014
RJNK 252300Z 06005KT 020V090 9999 FEW010 13/08 Q1014
RJNK 252200Z VRB02KT 9999 FEW010 11/09 Q1014
RJNK 252100Z 10002KT 9999 FEW010 10/09 Q1013
RJNK 252000Z 13003KT 9999 FEW010 SCT015 BKN030 11/09 Q1013
RJNK 251900Z 35004KT 9999 FEW010 SCT020 BKN030 11/08 Q1012
RJNK 251800Z 33006KT 9999 -RA FEW010 SCT015 BKN030 11/09 Q1012
RJNK 251700Z 32008KT 9999 FEW008 SCT010 BKN015 11/09 Q1011
RJNK 251600Z 31006KT 9999 -DZ FEW008 SCT010 BKN015 11/09 Q1011
RJNK 251500Z 32007KT 9999 -DZ FEW008 SCT010 BKN015 11/09 Q1011
RJNK 251400Z 33007KT 7000 -DZ FEW008 SCT010 BKN013 11/10 Q1011
RJNK 251300Z 33007KT 5000 -DZ BR FEW008 SCT010 BKN013 11/10 Q1011
RJNK 251200Z 31008KT 9999 -RA FEW008 SCT010 BKN013 12/10 Q1011
RJNK 251100Z 30007KT 9999 -RA SCT008 BKN010 OVC013 12/10 Q1010
RJNK 251000Z 29007KT 4000 -RADZ BR SCT003 BKN008 OVC015 12/11 Q1009
RJNK 250900Z 29008KT 9999 -RA SCT003 BKN007 OVC015 12/11 Q1008
RJNK 250800Z 29007KT 2000 -RADZ BR FEW002 OVC003 12/12 Q1008
RJNK 250700Z 29009KT 2000 -RADZ BR SCT002 OVC003 12/12 Q1007
RJNK 250600Z 30009KT 2500 -SHRA BR FEW002 BKN003 OVC005 13/12 Q1007
RJNK 250500Z 29009KT 2000 -SHRA BR SCT002 BKN003 OVC005 13/13 Q1006
RJNK 250400Z 29009KT 2000 -SHRA BR SCT002 BKN003 OVC005 13/13 Q1006
RJNK 250300Z 29010KT 2000 -SHRA BR FEW001 SCT002 BKN003 13/13 Q1005
RJNK 250200Z 29009KT 3000 -SHRA BR FEW002 BKN003 BKN005 14/13 Q1005
RJNK 250100Z 22013KT 3500 -SHRA BR FEW002 SCT003 BKN005 14/14 Q1004
RJNK 250000Z 24013KT 7000 -SHRA FEW002 SCT003 BKN005 14/13 Q1003
RJNK 242300Z 24012KT 5000 -SHRA BR FEW002 BKN003 BKN005 14/13 Q1003
RJNK 242200Z 24010KT 7000 -SHRA FEW002 BKN003 BKN005 15/14 Q1002
RJNK 242100Z 25014KT 3000 -SHRA BR FEW002 SCT003 BKN005 15/15 Q1001
RJNK 242000Z 24003KT 210V270 5000 -SHRA BR FEW002 BKN005 BKN015 17/16 Q1001
RJNK 241900Z VRB02KT 3000 SHRA BR FEW003 BKN015 OVC040 16/16 Q1001
RJNK 241800Z VRB02KT 8000 -SHRA FEW003 BKN015 BKN040 16/15 Q1001
RJNK 241700Z 13003KT 4000 -SHRA BR FEW003 BKN005 BKN015 16/15 Q1001
RJNK 241600Z 00000KT 3000 SHRA BR FEW003 SCT005 BKN015 15/15 Q1002
RJNK 241500Z 01004KT 8000 -RA FEW005 BKN040 OVC060 16/15 Q1002
RJNK 241400Z 04003KT 8000 -RA FEW030 OVC060 16/15 Q1003
RJNK 241300Z 04004KT 8000 -RA FEW005 OVC060 16/15 Q1004
RJNK 241200Z 35004KT 5000 -RA BR FEW005 OVC060 16/15 Q1004